createdAt,value
2018-03-21T00:00:03.756Z,1.03
2018-03-21T00:02:29.644Z,0.95
2018-03-21T00:04:55.497Z,0.86
2018-03-21T00:07:21.459Z,0.80
2018-03-21T00:09:47.346Z,0.70
2018-03-21T00:12:16.778Z,0.49
2018-03-21T00:14:42.633Z,0.45
2018-03-21T00:17:12.037Z,0.48
2018-03-21T00:19:37.895Z,0.53
2018-03-21T00:22:05.323Z,0.55
2018-03-21T00:24:31.223Z,0.55
2018-03-21T00:26:59.750Z,0.53
2018-03-21T00:29:25.611Z,0.50
2018-03-21T00:31:54.283Z,0.44
2018-03-21T00:34:20.196Z,0.38
2018-03-21T00:36:48.952Z,0.32
2018-03-21T00:39:14.836Z,0.31
2018-03-21T00:41:40.693Z,0.20
2018-03-21T00:44:06.587Z,0.14
2018-03-21T00:46:32.475Z,0.10
2018-03-21T00:49:02.104Z,0.08
2018-03-21T00:51:27.964Z,0.03
2018-03-21T00:53:55.462Z,0.03
2018-03-21T00:56:21.345Z,0.05
2018-03-21T00:58:50.275Z,0.01
2018-03-21T01:01:16.138Z,-0.02
2018-03-21T01:03:44.900Z,-0.07
2018-03-21T01:06:10.816Z,-0.13
2018-03-21T01:08:40.418Z,-0.12
2018-03-21T01:11:06.466Z,-0.10
2018-03-21T01:13:34.581Z,-0.19
2018-03-21T01:16:00.433Z,-0.30
2018-03-21T01:18:26.323Z,-0.41
2018-03-21T01:20:52.195Z,-0.37
2018-03-21T01:23:18.113Z,-0.31
2018-03-21T01:25:47.884Z,-0.36
2018-03-21T01:28:13.739Z,-0.44
2018-03-21T01:30:40.893Z,-0.47
2018-03-21T01:33:06.789Z,-0.57
2018-03-21T01:35:35.762Z,-0.68
2018-03-21T01:38:01.677Z,-0.84
2018-03-21T01:40:31.166Z,-0.78
2018-03-21T01:42:57.076Z,-0.83
2018-03-21T01:45:25.007Z,-0.80
2018-03-21T01:47:50.870Z,-0.79
2018-03-21T01:50:19.659Z,-0.80
2018-03-21T01:52:45.541Z,-0.81
2018-03-21T01:55:11.424Z,-0.83
2018-03-21T01:57:37.323Z,-0.95
2018-03-21T02:00:03.303Z,-1.03
2018-03-21T02:02:32.400Z,-1.00
2018-03-21T02:04:58.262Z,-1.07
2018-03-21T02:07:27.884Z,-1.05
2018-03-21T02:09:53.761Z,-1.06
2018-03-21T02:12:20.860Z,-1.16
2018-03-21T02:14:46.723Z,-1.17
2018-03-21T02:17:15.558Z,-1.19
2018-03-21T02:19:42.957Z,-1.24
2018-03-21T02:22:10.582Z,-1.26
2018-03-21T02:24:36.449Z,-1.32
2018-03-21T02:27:05.950Z,-1.36
2018-03-21T02:29:31.867Z,-1.47
2018-03-21T02:31:57.706Z,-1.40
2018-03-21T02:34:23.580Z,-1.44
2018-03-21T02:36:49.453Z,-1.41
2018-03-21T02:39:18.557Z,-1.42
2018-03-21T02:41:44.419Z,-1.43
2018-03-21T02:44:13.414Z,-1.52
2018-03-21T02:46:39.276Z,-1.57
2018-03-21T02:49:06.679Z,-1.51
2018-03-21T02:51:32.691Z,-1.57
2018-03-21T02:54:01.740Z,-1.55
2018-03-21T02:56:27.631Z,-1.69
2018-03-21T02:58:57.320Z,-1.64
2018-03-21T03:01:23.197Z,-1.69
2018-03-21T03:03:50.929Z,-1.69
2018-03-21T03:06:16.807Z,-1.67
2018-03-21T03:08:42.673Z,-1.67
2018-03-21T03:11:08.528Z,-1.68
2018-03-21T03:13:34.406Z,-1.72
2018-03-21T03:16:02.186Z,-1.73
2018-03-21T03:18:28.033Z,-1.85
2018-03-21T03:20:56.735Z,-1.89
2018-03-21T03:23:22.588Z,-1.87
2018-03-21T03:25:55.280Z,-1.97
2018-03-21T03:28:21.136Z,-2.02
2018-03-21T03:30:47.012Z,-2.00
2018-03-21T03:33:12.892Z,-2.05
2018-03-21T03:35:40.934Z,-2.07
2018-03-21T03:38:06.820Z,-2.08
2018-03-21T03:40:35.790Z,-2.03
2018-03-21T03:43:01.695Z,-2.04
2018-03-21T03:45:27.558Z,-2.08
2018-03-21T03:47:53.437Z,-2.20
2018-03-21T03:50:19.318Z,-2.31
2018-03-21T03:52:48.946Z,-2.29
2018-03-21T03:55:14.803Z,-2.31
2018-03-21T03:57:42.130Z,-2.35
2018-03-21T04:00:08.038Z,-2.34
2018-03-21T04:02:36.735Z,-2.25
2018-03-21T04:05:02.612Z,-2.24
2018-03-21T04:07:31.274Z,-2.21
2018-03-21T04:09:57.141Z,-2.23
2018-03-21T04:12:26.179Z,-2.20
2018-03-21T04:14:52.061Z,-2.21
2018-03-21T04:17:20.748Z,-2.22
2018-03-21T04:19:46.641Z,-2.23
2018-03-21T04:22:12.514Z,-2.22
2018-03-21T04:24:38.377Z,-2.28
2018-03-21T04:27:04.235Z,-2.35
2018-03-21T04:29:32.735Z,-2.40
2018-03-21T04:31:58.571Z,-2.47
2018-03-21T04:34:27.749Z,-2.59
2018-03-21T04:36:53.610Z,-2.57
2018-03-21T04:39:23.224Z,-2.56
2018-03-21T04:41:49.134Z,-2.58
2018-03-21T04:44:18.632Z,-2.62
2018-03-21T04:46:44.510Z,-2.63
2018-03-21T04:49:12.123Z,-2.58
2018-03-21T04:51:37.973Z,-2.55
2018-03-21T04:54:06.518Z,-2.56
2018-03-21T04:56:32.396Z,-2.54
2018-03-21T04:58:58.283Z,-2.51
2018-03-21T05:01:24.131Z,-2.51
2018-03-21T05:03:50.023Z,-2.46
2018-03-21T05:06:19.005Z,-2.42
2018-03-21T05:08:44.864Z,-2.40
2018-03-21T05:11:12.592Z,-2.35
2018-03-21T05:13:38.447Z,-2.32
2018-03-21T05:16:07.187Z,-2.29
2018-03-21T05:18:33.023Z,-2.27
2018-03-21T05:21:01.849Z,-2.30
2018-03-21T05:23:27.748Z,-2.26
2018-03-21T05:25:56.537Z,-2.23
2018-03-21T05:28:22.397Z,-2.22
2018-03-21T05:33:19.077Z,-2.17
2018-03-21T05:35:44.936Z,-2.15
2018-03-21T05:38:10.830Z,-2.13
2018-03-21T05:40:36.672Z,-2.18
2018-03-21T05:43:03.213Z,-2.20
2018-03-21T05:45:29.062Z,-2.28
2018-03-21T05:47:57.825Z,-2.39
2018-03-21T05:50:23.704Z,-2.32
2018-03-21T05:52:52.355Z,-2.31
2018-03-21T05:55:18.285Z,-2.21
2018-03-21T05:57:47.003Z,-2.10
2018-03-21T06:00:12.905Z,-1.97
2018-03-21T06:05:09.743Z,-1.66
2018-03-21T06:07:37.233Z,-1.56
2018-03-21T06:10:03.154Z,-1.46
2018-03-21T06:12:29.047Z,-1.30
2018-03-21T06:14:54.951Z,-1.08
2018-03-21T06:17:20.844Z,-0.92
2018-03-21T06:19:50.096Z,-0.81
2018-03-21T06:22:15.946Z,-0.60
2018-03-21T06:24:43.127Z,-0.45
2018-03-21T06:27:08.977Z,-0.27
2018-03-21T06:29:37.619Z,-0.13
2018-03-21T06:32:03.552Z,-0.14
2018-03-21T06:34:32.962Z,-0.04
2018-03-21T06:36:58.847Z,0.14
2018-03-21T06:39:27.307Z,0.04
2018-03-21T06:41:53.179Z,0.06
2018-03-21T06:44:22.148Z,0.06
2018-03-21T06:46:48.002Z,0.20
2018-03-21T06:49:13.883Z,0.46
2018-03-21T06:51:39.762Z,0.86
2018-03-21T06:54:05.624Z,1.12
2018-03-21T06:56:35.217Z,1.72
2018-03-21T06:59:01.114Z,2.10
2018-03-21T07:01:28.634Z,2.66
2018-03-21T07:03:54.485Z,3.01
2018-03-21T07:06:23.194Z,3.05
2018-03-21T07:08:49.112Z,3.55
2018-03-21T07:11:18.800Z,4.16
2018-03-21T07:13:57.145Z,4.53
2018-03-21T07:16:35.694Z,4.96
2018-03-21T07:19:01.552Z,5.42
2018-03-21T07:21:27.425Z,5.91
2018-03-21T07:23:53.277Z,6.17
2018-03-21T07:26:19.149Z,6.68
2018-03-21T07:28:45.161Z,6.77
2018-03-21T07:31:11.069Z,7.14
2018-03-21T07:33:36.944Z,7.65
2018-03-21T07:36:02.793Z,7.47
2018-03-21T07:38:28.646Z,7.80
2018-03-21T07:40:54.505Z,8.45
2018-03-21T07:43:20.379Z,8.83
2018-03-21T07:45:46.264Z,8.89
2018-03-21T07:48:12.113Z,8.90
2018-03-21T07:50:37.971Z,8.95
2018-03-21T07:53:03.832Z,9.37
2018-03-21T07:55:29.725Z,9.95
2018-03-21T07:57:55.548Z,10.14
2018-03-21T08:00:21.387Z,10.15
2018-03-21T08:02:47.274Z,10.44
2018-03-21T08:05:13.123Z,10.73
2018-03-21T08:07:38.973Z,10.83
2018-03-21T08:10:04.837Z,11.73
2018-03-21T08:12:30.669Z,11.96
2018-03-21T08:14:59.463Z,11.94
2018-03-21T08:17:25.341Z,12.67
2018-03-21T08:19:54.746Z,12.61
2018-03-21T08:22:20.639Z,12.11
2018-03-21T08:24:50.216Z,11.92
2018-03-21T08:27:16.107Z,12.20
2018-03-21T08:29:43.292Z,11.56
2018-03-21T08:32:09.153Z,11.68
2018-03-21T08:34:38.342Z,12.25
2018-03-21T08:37:04.261Z,12.92
2018-03-21T08:39:30.154Z,12.81
2018-03-21T08:41:55.998Z,11.87
2018-03-21T08:44:21.872Z,10.77
2018-03-21T08:46:51.427Z,10.65
2018-03-21T08:49:17.331Z,10.72
2018-03-21T08:51:44.964Z,10.19
2018-03-21T08:54:10.822Z,10.06
2018-03-21T08:56:39.114Z,9.79
2018-03-21T08:59:04.996Z,9.25
2018-03-21T09:01:34.211Z,8.98
2018-03-21T09:04:00.066Z,8.75
2018-03-21T09:06:29.212Z,8.84
2018-03-21T09:08:55.082Z,8.85
2018-03-21T09:11:24.196Z,9.06
2018-03-21T09:13:50.099Z,8.55
2018-03-21T09:16:15.950Z,8.71
2018-03-21T09:18:41.823Z,8.80
2018-03-21T09:21:07.682Z,8.31
2018-03-21T09:23:34.829Z,7.72
2018-03-21T09:26:00.689Z,8.00
2018-03-21T09:28:30.480Z,8.33
2018-03-21T09:30:56.335Z,7.97
2018-03-21T09:33:25.871Z,8.04
2018-03-21T09:35:51.720Z,8.68
2018-03-21T09:38:19.099Z,8.31
2018-03-21T09:40:44.946Z,7.89
2018-03-21T09:43:13.656Z,8.91
2018-03-21T09:45:39.509Z,9.44
2018-03-21T09:48:09.304Z,9.43
2018-03-21T09:50:35.157Z,10.48
2018-03-21T09:53:01.024Z,10.07
2018-03-21T09:55:26.891Z,10.47
2018-03-21T09:57:52.738Z,11.22
2018-03-21T10:00:22.068Z,10.83
2018-03-21T10:02:47.943Z,11.67
2018-03-21T10:05:15.018Z,11.99
2018-03-21T10:07:40.925Z,12.99
2018-03-21T10:10:10.681Z,13.03
2018-03-21T10:12:36.567Z,13.21
2018-03-21T10:15:04.543Z,13.26
2018-03-21T10:17:30.417Z,12.81
2018-03-21T10:20:00.090Z,12.73
2018-03-21T10:22:25.911Z,13.00
2018-03-21T10:24:55.487Z,13.72
2018-03-21T10:27:21.342Z,13.64
2018-03-21T10:29:47.209Z,13.88
2018-03-21T10:32:13.054Z,14.35
2018-03-21T10:34:38.937Z,14.58
2018-03-21T10:37:05.456Z,15.04
2018-03-21T10:39:31.366Z,15.20
2018-03-21T10:42:01.000Z,15.65
2018-03-21T10:44:26.858Z,16.21
2018-03-21T10:46:55.949Z,15.79
2018-03-21T10:49:21.819Z,15.78
2018-03-21T10:51:51.346Z,14.46
2018-03-21T10:54:17.212Z,14.35
2018-03-21T10:56:44.959Z,14.03
2018-03-21T10:59:10.901Z,14.40
2018-03-21T11:01:39.904Z,13.51
2018-03-21T11:04:05.815Z,12.84
2018-03-21T11:06:31.704Z,13.53
2018-03-21T11:08:57.747Z,14.24
2018-03-21T11:11:23.635Z,15.17
2018-03-21T11:13:50.961Z,14.99
2018-03-21T11:16:16.834Z,15.54
2018-03-21T11:18:46.486Z,15.18
2018-03-21T11:21:12.366Z,14.46
2018-03-21T11:23:40.612Z,14.43
2018-03-21T11:26:06.456Z,14.94
2018-03-21T11:28:35.994Z,15.53
2018-03-21T11:31:01.830Z,15.37
2018-03-21T11:33:31.245Z,14.86
2018-03-21T11:35:57.133Z,14.44
2018-03-21T11:38:24.553Z,14.72
2018-03-21T11:40:50.427Z,14.49
2018-03-21T11:43:16.291Z,14.13
2018-03-21T11:45:42.142Z,14.24
2018-03-21T11:48:08.017Z,14.11
2018-03-21T11:50:37.721Z,14.73
2018-03-21T11:53:03.544Z,14.92
2018-03-21T11:55:31.117Z,14.51
2018-03-21T11:57:56.955Z,14.07
2018-03-21T12:00:26.488Z,13.36
2018-03-21T12:02:52.418Z,13.22
2018-03-21T12:05:21.468Z,13.75
2018-03-21T12:07:47.350Z,12.93
2018-03-21T12:10:16.459Z,13.40
2018-03-21T12:12:43.206Z,13.96
2018-03-21T12:15:09.839Z,14.31
2018-03-21T12:17:35.734Z,14.62
2018-03-21T12:20:01.613Z,14.51
2018-03-21T12:22:27.457Z,14.38
2018-03-21T12:24:53.306Z,13.47
2018-03-21T12:27:23.149Z,13.35
2018-03-21T12:29:49.014Z,13.80
2018-03-21T12:32:16.847Z,14.33
2018-03-21T12:34:42.754Z,14.05
2018-03-21T12:37:12.506Z,13.77
2018-03-21T12:39:38.372Z,13.74
2018-03-21T12:42:05.652Z,14.26
2018-03-21T12:44:31.596Z,14.58
2018-03-21T12:47:00.349Z,14.51
2018-03-21T12:49:26.238Z,14.50
2018-03-21T12:51:55.093Z,13.83
2018-03-21T12:54:20.946Z,13.49
2018-03-21T12:56:46.814Z,13.88
2018-03-21T12:59:12.707Z,13.95
2018-03-21T13:01:38.570Z,14.09
2018-03-21T13:04:06.975Z,14.17
2018-03-21T13:06:32.838Z,13.51
2018-03-21T13:09:01.903Z,13.54
2018-03-21T13:11:27.782Z,13.98
2018-03-21T13:13:56.725Z,14.15
2018-03-21T13:16:22.572Z,14.20
2018-03-21T13:18:52.062Z,14.26
2018-03-21T13:21:17.943Z,14.13
2018-03-21T13:23:47.230Z,13.38
2018-03-21T13:26:13.058Z,12.24
2018-03-21T13:28:40.347Z,12.70
2018-03-21T13:31:06.211Z,13.15
2018-03-21T13:33:32.072Z,13.38
2018-03-21T13:35:57.933Z,13.73
2018-03-21T13:38:23.797Z,13.46
2018-03-21T13:40:52.286Z,13.48
2018-03-21T13:43:18.140Z,13.41
2018-03-21T13:45:47.369Z,13.47
2018-03-21T13:48:13.405Z,13.61
2018-03-21T13:50:42.650Z,13.57
2018-03-21T13:53:08.530Z,14.25
2018-03-21T13:55:37.922Z,14.24
2018-03-21T13:58:03.806Z,13.90
2018-03-21T14:00:31.050Z,13.97
2018-03-21T14:02:56.910Z,13.63
2018-03-21T14:05:26.626Z,13.69
2018-03-21T14:07:52.452Z,14.08
2018-03-21T14:10:18.317Z,13.82
2018-03-21T14:12:44.173Z,13.55
2018-03-21T14:15:10.011Z,13.35
2018-03-21T14:17:37.775Z,13.24
2018-03-21T14:20:03.680Z,13.30
2018-03-21T14:22:32.843Z,13.26
2018-03-21T14:24:58.716Z,13.09
2018-03-21T14:27:27.970Z,13.28
2018-03-21T14:29:53.881Z,13.62
2018-03-21T14:32:21.886Z,13.82
2018-03-21T14:34:47.754Z,13.75
2018-03-21T14:37:17.102Z,13.93
2018-03-21T14:39:42.987Z,14.14
2018-03-21T14:45:01.971Z,13.67
2018-03-21T14:47:27.804Z,13.69
2018-03-21T14:49:53.670Z,12.74
2018-03-21T14:52:19.614Z,13.25
2018-03-21T14:54:45.636Z,13.93
2018-03-21T14:57:11.508Z,14.18
2018-03-21T14:59:37.446Z,14.16
2018-03-21T15:02:03.324Z,14.03
2018-03-21T15:04:29.195Z,12.87
2018-03-21T15:06:55.113Z,12.39
2018-03-21T15:09:20.995Z,12.33
2018-03-21T15:11:46.873Z,12.63
2018-03-21T15:14:12.751Z,12.63
2018-03-21T15:16:38.624Z,13.02
2018-03-21T15:19:04.513Z,12.71
2018-03-21T15:21:30.375Z,12.94
2018-03-21T15:23:56.296Z,13.45
2018-03-21T15:26:22.174Z,13.63
2018-03-21T15:28:48.033Z,14.25
2018-03-21T15:31:13.887Z,14.49
2018-03-21T15:33:39.763Z,14.39
2018-03-21T15:36:05.680Z,14.69
2018-03-21T15:38:31.541Z,14.72
2018-03-21T15:40:57.409Z,15.05
2018-03-21T15:43:23.269Z,15.14
2018-03-21T15:45:52.050Z,14.38
2018-03-21T15:48:17.889Z,13.45
2018-03-21T15:50:46.666Z,13.56
2018-03-21T15:53:13.485Z,13.94
2018-03-21T15:55:41.510Z,13.42
2018-03-21T15:58:07.382Z,13.88
2018-03-21T16:00:33.271Z,14.26
2018-03-21T16:02:59.157Z,14.32
2018-03-21T16:05:25.024Z,14.05
2018-03-21T16:07:54.689Z,14.24
2018-03-21T16:10:20.567Z,13.91
2018-03-21T16:12:49.832Z,13.09
2018-03-21T16:15:15.712Z,12.90
2018-03-21T16:17:43.458Z,13.00
2018-03-21T16:20:09.305Z,13.20
2018-03-21T16:22:38.617Z,13.04
2018-03-21T16:25:04.509Z,13.18
2018-03-21T16:27:32.347Z,13.13
2018-03-21T16:29:58.195Z,12.74
2018-03-21T16:32:27.092Z,12.62
2018-03-21T16:34:52.961Z,12.64
2018-03-21T16:37:18.806Z,12.23
2018-03-21T16:39:44.706Z,11.83
2018-03-21T16:42:10.591Z,11.52
2018-03-21T16:44:39.612Z,11.39
2018-03-21T16:47:05.510Z,11.11
2018-03-21T16:49:33.260Z,10.75
2018-03-21T16:51:59.137Z,10.59
2018-03-21T16:54:27.788Z,10.20
2018-03-21T16:56:53.632Z,10.01
2018-03-21T16:59:22.308Z,9.69
2018-03-21T17:01:48.165Z,9.41
2018-03-21T17:04:16.831Z,9.32
2018-03-21T17:06:42.680Z,9.27
2018-03-21T17:09:08.540Z,9.01
2018-03-21T17:11:37.464Z,8.90
2018-03-21T17:14:03.363Z,8.76
2018-03-21T17:16:29.217Z,8.50
2018-03-21T17:18:55.075Z,8.37
2018-03-21T17:21:24.860Z,8.13
2018-03-21T17:23:50.707Z,7.93
2018-03-21T17:26:19.656Z,7.69
2018-03-21T17:28:45.493Z,7.47
2018-03-21T17:31:14.754Z,7.38
2018-03-21T17:33:40.639Z,7.20
2018-03-21T17:36:09.773Z,7.05
2018-03-21T17:38:35.633Z,6.84
2018-03-21T17:41:02.717Z,6.76
2018-03-21T17:43:28.595Z,6.62
2018-03-21T17:45:57.318Z,6.51
2018-03-21T17:48:23.207Z,6.34
2018-03-21T17:50:49.034Z,6.25
2018-03-21T17:53:14.912Z,6.16
2018-03-21T17:55:40.834Z,5.99
2018-03-21T17:58:09.224Z,5.76
2018-03-21T18:00:35.110Z,5.71
2018-03-21T18:03:03.809Z,5.57
2018-03-21T18:05:29.633Z,5.47
2018-03-21T18:07:58.331Z,5.39
2018-03-21T18:10:24.207Z,5.30
2018-03-21T18:12:52.812Z,5.23
2018-03-21T18:15:18.903Z,5.16
2018-03-21T18:20:15.692Z,4.86
2018-03-21T18:22:42.734Z,4.78
2018-03-21T18:25:08.574Z,4.61
2018-03-21T18:27:34.452Z,4.59
2018-03-21T18:30:00.404Z,4.53
2018-03-21T18:32:26.286Z,4.36
2018-03-21T18:34:55.300Z,4.23
2018-03-21T18:37:21.177Z,4.15
2018-03-21T18:39:50.177Z,4.01
2018-03-21T18:42:16.054Z,4.00
2018-03-21T18:44:45.150Z,4.01
2018-03-21T18:47:11.059Z,3.99
2018-03-21T18:49:38.671Z,4.01
2018-03-21T18:52:04.566Z,3.94
2018-03-21T18:54:33.463Z,3.88
2018-03-21T18:56:59.357Z,3.84
2018-03-21T18:59:28.664Z,3.69
2018-03-21T19:01:54.514Z,3.65
2018-03-21T19:04:20.479Z,3.60
2018-03-21T19:06:46.325Z,3.44
2018-03-21T19:09:12.201Z,3.28
2018-03-21T19:11:39.793Z,3.24
2018-03-21T19:14:05.701Z,3.26
2018-03-21T19:16:34.428Z,3.17
2018-03-21T19:19:00.280Z,3.15
2018-03-21T19:21:33.023Z,3.07
2018-03-21T19:23:58.894Z,3.02
2018-03-21T19:26:24.835Z,2.95
2018-03-21T19:28:50.705Z,2.95
2018-03-21T19:31:18.873Z,2.90
2018-03-21T19:33:44.729Z,2.88
2018-03-21T19:36:14.046Z,2.93
2018-03-21T19:38:39.888Z,2.91
2018-03-21T19:41:05.753Z,2.83
2018-03-21T19:43:31.755Z,2.84
2018-03-21T19:45:57.613Z,2.78
2018-03-21T19:48:25.404Z,2.67
2018-03-21T19:50:51.296Z,2.55
2018-03-21T19:53:19.565Z,2.54
2018-03-21T19:55:45.454Z,2.59
2018-03-21T19:58:14.149Z,2.59
2018-03-21T20:00:40.033Z,2.53
2018-03-21T20:03:08.546Z,2.46
2018-03-21T20:05:34.455Z,2.44
2018-03-21T20:08:02.443Z,2.46
2018-03-21T20:10:28.367Z,2.30
2018-03-21T20:12:54.275Z,2.15
2018-03-21T20:15:21.094Z,2.14
2018-03-21T20:17:47.021Z,2.22
2018-03-21T20:20:16.158Z,1.96
2018-03-21T20:22:42.024Z,2.19
2018-03-21T20:25:11.006Z,2.22
2018-03-21T20:27:36.875Z,2.10
2018-03-21T20:30:06.754Z,2.02
2018-03-21T20:32:32.620Z,2.05
2018-03-21T20:35:01.570Z,1.92
2018-03-21T20:37:27.432Z,1.86
2018-03-21T20:39:54.642Z,1.93
2018-03-21T20:42:20.501Z,1.85
2018-03-21T20:44:49.666Z,1.74
2018-03-21T20:47:15.509Z,1.73
2018-03-21T20:49:44.429Z,1.71
2018-03-21T20:52:10.306Z,1.60
2018-03-21T20:54:36.234Z,1.49
2018-03-21T20:57:02.104Z,1.52
2018-03-21T20:59:27.965Z,1.49
2018-03-21T21:01:57.325Z,1.49
2018-03-21T21:04:23.217Z,1.58
2018-03-21T21:06:52.228Z,1.61
2018-03-21T21:09:18.101Z,1.58
2018-03-21T21:11:45.151Z,1.62
2018-03-21T21:14:11.036Z,1.56
2018-03-21T21:16:39.844Z,1.46
2018-03-21T21:19:05.722Z,1.47
2018-03-21T21:21:34.463Z,1.40
2018-03-21T21:24:00.360Z,1.39
2018-03-21T21:26:29.079Z,1.36
2018-03-21T21:28:54.913Z,1.32
2018-03-21T21:31:20.791Z,1.28
2018-03-21T21:33:46.663Z,1.31
2018-03-21T21:36:12.511Z,1.26
2018-03-21T21:38:41.909Z,1.25
2018-03-21T21:41:07.738Z,1.24
2018-03-21T21:43:36.913Z,1.23
2018-03-21T21:46:02.790Z,1.21
2018-03-21T21:48:30.405Z,1.04
2018-03-21T21:50:56.263Z,1.03
2018-03-21T21:53:25.437Z,1.07
2018-03-21T21:55:51.299Z,1.02
2018-03-21T21:58:20.688Z,1.09
2018-03-21T22:00:46.527Z,1.10
2018-03-21T22:03:15.416Z,1.06
2018-03-21T22:05:41.292Z,0.98
2018-03-21T22:08:07.166Z,0.89
2018-03-21T22:10:33.031Z,0.77
2018-03-21T22:12:58.914Z,0.75
2018-03-21T22:15:26.371Z,0.77
2018-03-21T22:17:52.271Z,0.71
2018-03-21T22:20:21.254Z,0.65
2018-03-21T22:22:47.140Z,0.56
2018-03-21T22:25:16.032Z,0.58
2018-03-21T22:27:41.926Z,0.43
2018-03-21T22:30:10.960Z,0.24
2018-03-21T22:32:36.846Z,0.26
2018-03-21T22:35:05.981Z,0.07
2018-03-21T22:37:31.816Z,-0.06
2018-03-21T22:39:59.944Z,-0.08
2018-03-21T22:42:25.821Z,0.02
2018-03-21T22:44:51.674Z,0.05
2018-03-21T22:47:17.529Z,0.06
2018-03-21T22:49:43.363Z,0.13
2018-03-21T22:52:11.582Z,0.14
2018-03-21T22:54:37.448Z,0.17
2018-03-21T22:57:06.124Z,0.14
2018-03-21T22:59:31.980Z,0.15
2018-03-21T23:02:00.873Z,0.16
2018-03-21T23:04:26.780Z,0.11
2018-03-21T23:06:55.537Z,0.15
2018-03-21T23:09:21.393Z,0.14
2018-03-21T23:11:50.220Z,0.09
2018-03-21T23:14:16.061Z,0.06
2018-03-21T23:16:44.937Z,0.03
2018-03-21T23:19:10.777Z,0.01
2018-03-21T23:21:36.634Z,0.03
2018-03-21T23:24:02.520Z,0.09
2018-03-21T23:26:28.396Z,0.16
2018-03-21T23:28:57.284Z,0.15
2018-03-21T23:31:23.152Z,0.02
2018-03-21T23:33:52.152Z,0.02
2018-03-21T23:36:18.068Z,-0.10
2018-03-21T23:38:47.227Z,-0.20
2018-03-21T23:41:13.109Z,-0.15
2018-03-21T23:43:42.045Z,-0.24
2018-03-21T23:46:07.892Z,-0.20
2018-03-21T23:48:36.073Z,-0.30
2018-03-21T23:51:01.986Z,-0.22
2018-03-21T23:53:31.057Z,-0.25
2018-03-21T23:55:56.927Z,-0.14
2018-03-21T23:58:22.784Z,-0.14
